Here is the Quick Look data you requested

The Data originates at the National Weather Service, and is made available here by the UAlbany Department of Atmospheric and Environmental Sciences

Surface Observations

KCHS 210356Z 22006KT 10SM SCT200 08/00 A3026 RMK AO2 SLP247 T00830000=
KCHS 210456Z 24005KT 10SM BKN250 07/M01 A3025 RMK AO2 SLP244 T00721006
 401830000=
KCHS 210556Z 25004KT 10SM BKN250 08/M01 A3024 RMK AO2 SLP241 T00831006 10100
 20067 58007=
KCHS 210656Z 00000KT 10SM BKN250 09/M01 A3023 RMK AO2 SLP237 T00941011=
KCHS 210756Z 23003KT 10SM FEW100 BKN200 09/M01 A3023 RMK AO2 SLP235 T00891011=
KCHS 210856Z 30004KT 10SM SCT120 BKN200 09/M02 A3023 RMK AO2 SLP236 T00941017
 55004=
KCHS 210956Z 00000KT 10SM SCT100 BKN200 09/M01 A3024 RMK AO2 SLP240 T00891006=
KCHS 211056Z 00000KT 10SM SCT120 BKN200 09/M01 A3025 RMK AO2 SLP243 T00891011=
KCHS 211156Z 00000KT 10SM BKN150 08/M01 A3026 RMK AO2 SLP246 T00831011 10100
 20078 52010=
KCHS 211256Z 00000KT 10SM SCT080 SCT150 06/M01 A3027 RMK AO2 SLP248 T00561006=
KCHS 211356Z 00000KT 10SM SCT080 SCT150 08/01 A3029 RMK AO2 SLP255 T00830011=
KCHS 211456Z 35004KT 10SM SCT080 BKN200 11/01 A3029 RMK AO2 SLP256 T01110011
 51010=
KCHS 211556Z 00000KT 10SM FEW080 SCT200 15/03 A3028 RMK AO2 SLP254 T01500033=
KCHS 211656Z VRB03KT 10SM FEW080 SCT200 19/04 A3026 RMK AO2 SLP247 T01890044=
KCHS 211756Z 31004KT 10SM FEW200 21/04 A3023 RMK AO2 SLP236 T02060044 10211
 20056 58020=
KCHS 211856Z 25003KT 10SM FEW200 21/04 A3020 RMK AO2 SLP227 T02110044=
KCHS 211956Z 15009KT 10SM CLR 20/06 A3020 RMK AO2 SLP226 T02000056=
KCHS 212056Z 14008KT 10SM CLR 19/06 A3020 RMK AO2 SLP227 T01890056 55008=
KCHS 212156Z 16008KT 10SM CLR 17/06 A3021 RMK AO2 SLP229 T01720056=
KCHS 212256Z 12005KT 10SM CLR 14/06 A3021 RMK AO2 SLP230 T01390056=
KCHS 212356Z 18004KT 10SM CLR 12/05 A3023 RMK AO2 SLP236 T01170050 10217 20111
 53009=
KCHS 220056Z 00000KT 10SM CLR 12/05 A3024 RMK AO2 SLP240 T01170050=
KCHS 220156Z 00000KT 10SM CLR 11/06 A3023 RMK AO2 SLP236 T01060056=
KCHS 220256Z 00000KT 10SM CLR 08/05 A3023 RMK AO2 SLP235 T00830050 58001=
KCHS 220356Z 00000KT 9SM CLR 07/05 A3024 RMK AO2 SLP238 T00720050=
KCHS 220456Z 00000KT 8SM CLR 07/05 A3021 RMK AO2 SLP229 T00670050 402170056=
KCHS 220556Z 00000KT 7SM CLR 06/04 A3021 RMK AO2 SLP230 T00610044 10122 20061
 58005=
KCHS 220656Z 00000KT 7SM FEW250 06/05 A3020 RMK AO2 SLP225 T00610050=
KCHS 220756Z 00000KT 6SM BR FEW250 06/04 A3019 RMK AO2 SLP223 T00560044=
KCHS 220856Z 00000KT 7SM SCT250 05/04 A3020 RMK AO2 SLP224 T00500039 55006=
KCHS 220956Z 04003KT 6SM BR SCT200 06/04 A3019 RMK AO2 SLP221 T00560044=
KCHS 221056Z 00000KT 5SM BR FEW030 SCT200 06/05 A3019 RMK AO2 SLP221 T00610050=
KCHS 221156Z 03003KT 5SM BR FEW030 BKN200 06/05 A3019 RMK AO2 SLP222 T00610050
 10067 20044 55002=
KCHS 221256Z 00000KT 3SM BR FEW030 BKN200 08/06 A3019 RMK AO2 SLP223 T00780061=
KCHS 221356Z 09003KT 7SM FEW030 BKN200 11/08 A3020 RMK AO2 SLP224 T01110083=
KCHS 221456Z 00000KT 7SM BKN045 OVC200 14/10 A3021 RMK AO2 SLP228 T01440100
 53006=
KCHS 221556Z 12004KT 7SM FEW045 BKN060 BKN200 17/11 A3021 RMK AO2 SLP228
 T01720106=